Time;durP1;ratioP1;P1;durP2;ratioP2;P2;SDS_P1;SDS_P2;PMS_P1;PMS_P2;Temp;Humidity;BMP_temperature;BMP_pressure;BME280_temperature;BME280_humidity;BME280_pressure;Samples;Min_cycle;Max_cycle;Signal;HPM_P1;HPM_P2
2023/05/21 00:01:15;;;;;;;13.32;11.48;;;;;;;17.01;73.76;96309.00;5015137;28;20054;-79
2023/05/21 00:03:44;;;;;;;12.77;9.57;;;;;;;16.97;69.42;96307.06;5015604;28;20086;-80
2023/05/21 00:06:14;;;;;;;12.38;11.18;;;;;;;16.99;73.28;96307.63;5011324;28;20086;-80
2023/05/21 00:08:42;;;;;;;12.00;9.82;;;;;;;16.99;70.18;96307.63;5003192;28;20170;-79
2023/05/21 00:11:09;;;;;;;14.10;10.77;;;;;;;17.00;69.55;96298.69;5002478;28;20207;-81
2023/05/21 00:13:37;;;;;;;13.15;10.40;;;;;;;16.97;68.98;96299.16;5004356;28;20082;-81
2023/05/21 00:16:05;;;;;;;11.48;10.07;;;;;;;16.93;67.68;96298.81;5004746;28;20074;-81
2023/05/21 00:18:34;;;;;;;11.77;10.05;;;;;;;16.91;66.81;96294.81;5004233;28;20050;-81
2023/05/21 00:21:01;;;;;;;13.18;11.32;;;;;;;16.89;70.50;96293.19;5005066;28;20078;-81
2023/05/21 00:23:31;;;;;;;13.80;11.38;;;;;;;16.93;71.85;96290.91;5003323;28;20071;-81
2023/05/21 00:25:59;;;;;;;12.75;11.45;;;;;;;16.95;73.82;96290.69;5004185;28;20046;-81
2023/05/21 00:28:27;;;;;;;12.30;11.00;;;;;;;16.95;72.25;96291.47;5003600;28;20171;-81
2023/05/21 00:30:54;;;;;;;12.45;10.57;;;;;;;16.90;69.09;96288.72;5003843;28;20473;-79
2023/05/21 00:33:25;;;;;;;12.20;10.98;;;;;;;16.89;71.46;96277.38;5004162;28;20058;-81
2023/05/21 00:35:53;;;;;;;12.20;10.85;;;;;;;16.88;69.48;96281.06;5003440;28;20145;-80
2023/05/21 00:38:20;;;;;;;13.10;11.50;;;;;;;16.84;68.89;96274.63;5003838;28;20054;-80
2023/05/21 00:40:50;;;;;;;11.85;10.60;;;;;;;16.81;69.20;96274.28;5003767;28;20074;-81
2023/05/21 00:43:17;;;;;;;12.07;10.77;;;;;;;16.80;69.32;96276.13;5004056;28;20050;-81
2023/05/21 00:45:46;;;;;;;14.30;11.73;;;;;;;16.78;67.14;96264.97;5004380;28;20047;-81
2023/05/21 00:48:14;;;;;;;14.00;11.23;;;;;;;16.78;69.48;96264.97;5004540;28;20055;-81
2023/05/21 00:50:43;;;;;;;14.57;11.60;;;;;;;16.76;67.71;96267.03;5003316;28;20050;-81
2023/05/21 00:53:12;;;;;;;12.27;10.68;;;;;;;16.73;67.04;96258.81;5002814;28;20086;-81
2023/05/21 00:55:40;;;;;;;14.93;13.40;;;;;;;16.79;76.27;96261.34;5003319;28;20086;-81
2023/05/21 00:58:09;;;;;;;12.32;11.07;;;;;;;16.77;70.27;96258.13;5003783;28;20553;-81
2023/05/21 01:00:39;;;;;;;12.77;11.00;;;;;;;16.74;69.39;96258.56;5003502;28;20100;-81
2023/05/21 01:03:07;;;;;;;12.63;11.32;;;;;;;16.73;69.44;96262.25;5003282;28;20054;-80
2023/05/21 01:05:35;;;;;;;16.00;13.35;;;;;;;16.75;75.10;96262.81;5003625;28;20047;-80
2023/05/21 01:08:04;;;;;;;15.10;13.25;;;;;;;16.81;77.47;96254.00;5004152;28;20052;-80
2023/05/21 01:10:32;;;;;;;13.07;11.73;;;;;;;16.80;73.24;96267.44;5003946;28;20050;-80
2023/05/21 01:13:00;;;;;;;13.48;11.35;;;;;;;16.77;72.25;96263.41;5003692;28;20062;-81
2023/05/21 01:15:29;;;;;;;12.40;10.63;;;;;;;16.71;69.24;96263.50;5003342;28;20042;-81
2023/05/21 01:17:57;;;;;;;13.77;11.80;;;;;;;16.75;74.94;96260.19;5002658;28;20046;-81
2023/05/21 01:20:25;;;;;;;12.50;10.95;;;;;;;16.69;70.51;96256.63;5003574;28;20046;-81
2023/05/21 01:22:55;;;;;;;14.10;12.65;;;;;;;16.66;70.73;96256.25;5002971;28;20085;-81
2023/05/21 01:25:23;;;;;;;14.43;12.02;;;;;;;16.66;71.76;96258.91;5002196;28;20129;-80
2023/05/21 01:27:51;;;;;;;13.43;11.52;;;;;;;16.70;71.42;96257.41;5000891;28;20133;-81
2023/05/21 01:30:21;;;;;;;15.05;13.10;;;;;;;16.74;74.76;96263.84;5001727;28;20054;-80
2023/05/21 01:32:55;;;;;;;12.13;10.82;;;;;;;16.73;75.82;96267.50;5001858;28;20066;-80
2023/05/21 01:35:28;;;;;;;13.13;10.05;;;;;;;16.72;70.73;96260.63;5002486;28;20046;-81
2023/05/21 01:38:02;;;;;;;13.73;11.98;;;;;;;16.74;76.67;96263.84;5002237;28;20465;-81
2023/05/21 01:40:37;;;;;;;11.93;10.07;;;;;;;16.69;71.42;96256.63;5001862;28;20104;-81
2023/05/21 01:43:07;;;;;;;15.25;11.35;;;;;;;16.63;69.08;96257.53;5002831;28;20073;-81
2023/05/21 01:45:38;;;;;;;13.27;10.95;;;;;;;16.59;68.15;96258.22;5001244;28;20050;-81
2023/05/21 01:48:08;;;;;;;13.43;12.03;;;;;;;16.60;73.89;96255.38;5001453;28;20113;-81
2023/05/21 01:50:37;;;;;;;11.25;10.05;;;;;;;16.57;69.78;96247.09;4999933;28;20050;-81
2023/05/21 01:53:06;;;;;;;12.50;10.50;;;;;;;16.55;68.74;96249.16;4999340;28;20111;-81
2023/05/21 01:55:38;;;;;;;13.93;12.27;;;;;;;16.61;76.70;96253.53;4999041;28;20054;-81
2023/05/21 01:58:06;;;;;;;14.40;13.00;;;;;;;16.69;78.95;96247.94;4999749;28;20081;-80
2023/05/21 02:00:33;;;;;;;13.07;11.77;;;;;;;16.70;76.61;96252.16;4999976;28;20656;-81
2023/05/21 02:03:01;;;;;;;11.45;10.25;;;;;;;16.62;72.18;96249.88;4999923;28;20116;-81
2023/05/21 02:05:29;;;;;;;16.35;13.32;;;;;;;16.59;76.64;96245.06;4999155;28;20050;-81
2023/05/21 02:07:59;;;;;;;14.75;13.15;;;;;;;16.66;82.26;96245.72;5000010;28;20054;-81
2023/05/21 02:10:28;;;;;;;13.18;11.88;;;;;;;16.60;74.95;96247.47;5000446;28;20058;-81
2023/05/21 02:12:56;;;;;;;12.82;11.15;;;;;;;16.57;73.78;96245.28;5000696;28;20081;-81
2023/05/21 02:15:23;;;;;;;12.90;11.25;;;;;;;16.59;73.87;96247.69;4999078;28;20054;-80
2023/05/21 02:17:51;;;;;;;13.40;10.80;;;;;;;16.57;74.59;96244.47;4999986;28;20426;-81
2023/05/21 02:20:21;;;;;;;13.77;10.45;;;;;;;16.54;71.74;96247.56;4999565;28;20042;-81
2023/05/21 02:22:49;;;;;;;11.43;10.20;;;;;;;16.50;71.35;96243.78;4998814;28;20062;-81
2023/05/21 02:25:18;;;;;;;11.90;10.32;;;;;;;16.50;70.74;96246.41;4998468;28;20053;-81
2023/05/21 02:27:52;;;;;;;14.73;13.25;;;;;;;16.59;79.83;96250.31;4998960;28;20070;-81
2023/05/21 02:30:20;;;;;;;13.80;12.32;;;;;;;16.62;77.05;96250.66;4998755;28;20495;-81
2023/05/21 02:32:49;;;;;;;11.40;10.15;;;;;;;16.55;71.71;96243.91;4999127;28;20050;-81
2023/05/21 02:35:17;;;;;;;13.20;10.55;;;;;;;16.48;70.85;96236.91;4999766;28;20487;-81
2023/05/21 02:37:45;;;;;;;13.75;10.90;;;;;;;16.48;74.95;96233.47;4999895;28;20050;-80
2023/05/21 02:40:12;;;;;;;14.00;12.60;;;;;;;16.50;78.36;96238.53;5000242;28;20110;-81
2023/05/21 02:42:40;;;;;;;11.85;10.50;;;;;;;16.45;73.06;96233.94;5000022;28;20105;-81
2023/05/21 02:45:12;;;;;;;13.20;10.02;;;;;;;16.38;70.22;96233.25;5000348;28;20050;-81
2023/05/21 02:47:40;;;;;;;15.40;13.80;;;;;;;16.43;77.97;96244.69;5000286;28;20056;-81
2023/05/21 02:50:09;;;;;;;11.98;9.75;;;;;;;16.40;72.58;96239.09;5000959;28;20046;-81
2023/05/21 02:52:36;;;;;;;15.20;10.30;;;;;;;16.34;70.49;96237.38;4999673;28;20050;-81
2023/05/21 02:55:05;;;;;;;11.85;10.52;;;;;;;16.33;73.96;96241.00;4999395;28;20116;-80
2023/05/21 02:57:32;;;;;;;12.35;10.65;;;;;;;16.32;71.36;96242.06;4999445;28;20069;-81
2023/05/21 03:00:00;;;;;;;15.85;9.80;;;;;;;16.26;69.92;96236.66;4999821;28;20465;-80
2023/05/21 03:02:29;;;;;;;13.80;9.77;;;;;;;16.22;68.69;96240.78;5000648;28;20089;-81
2023/05/21 03:04:57;;;;;;;12.10;10.75;;;;;;;16.19;68.50;96237.78;5000079;28;20469;-81
2023/05/21 03:07:25;;;;;;;12.60;9.95;;;;;;;16.18;68.36;96233.53;5001100;28;20129;-81
2023/05/21 03:09:53;;;;;;;16.02;11.38;;;;;;;16.17;71.42;96232.75;4999714;28;20124;-81
2023/05/21 03:12:20;;;;;;;13.45;12.15;;;;;;;16.20;72.78;96239.38;5000375;28;20081;-80
2023/05/21 03:14:50;;;;;;;11.27;10.05;;;;;;;16.14;70.15;96232.41;5000575;28;20074;-81
2023/05/21 03:17:19;;;;;;;12.88;10.57;;;;;;;16.09;69.24;96234.91;5000590;28;20057;-81
2023/05/21 03:19:48;;;;;;;13.10;10.88;;;;;;;16.05;69.95;96235.38;5000831;28;20053;-81
2023/05/21 03:22:16;;;;;;;14.35;10.70;;;;;;;16.05;68.79;96239.84;4999550;28;20518;-81
2023/05/21 03:24:45;;;;;;;11.35;10.15;;;;;;;16.00;68.53;96243.13;5000977;28;20054;-81
2023/05/21 03:27:12;;;;;;;12.18;10.55;;;;;;;15.98;68.57;96242.56;5003209;28;20046;-80
2023/05/21 03:29:42;;;;;;;11.55;10.38;;;;;;;15.98;68.78;96239.94;5003529;28;20056;-81
2023/05/21 03:32:09;;;;;;;12.90;10.30;;;;;;;15.96;68.52;96236.72;5003568;28;20692;-81
2023/05/21 03:34:37;;;;;;;15.60;12.48;;;;;;;16.00;75.60;96231.78;5001479;28;20055;-81
2023/05/21 03:37:06;;;;;;;12.57;11.07;;;;;;;15.98;71.52;96228.59;5001697;28;20050;-81
2023/05/21 03:39:34;;;;;;;13.27;10.23;;;;;;;15.95;70.48;96229.84;5002113;28;20438;-81
2023/05/21 03:42:01;;;;;;;12.30;10.13;;;;;;;15.92;69.39;96222.41;5000991;28;20109;-81
2023/05/21 03:44:31;;;;;;;13.38;10.60;;;;;;;15.89;69.25;96230.72;5001146;28;20051;-81
2023/05/21 03:46:58;;;;;;;11.70;10.02;;;;;;;15.90;69.61;96231.56;5001416;28;20104;-81
2023/05/21 03:49:26;;;;;;;12.30;11.10;;;;;;;15.89;73.81;96236.00;5001915;28;20105;-81
2023/05/21 03:51:54;;;;;;;12.98;10.52;;;;;;;15.88;71.17;96239.66;5001697;28;20054;-81
2023/05/21 03:54:23;;;;;;;12.32;11.13;;;;;;;15.84;69.86;96243.75;5001607;28;20077;-81
2023/05/21 03:56:50;;;;;;;13.32;10.82;;;;;;;15.79;69.77;96241.81;5002406;28;20050;-81
2023/05/21 03:59:18;;;;;;;12.55;11.25;;;;;;;15.76;69.36;96244.06;5002177;28;20050;-81
2023/05/21 04:01:46;;;;;;;16.42;14.73;;;;;;;15.79;77.36;96236.53;5001949;28;20050;-81
2023/05/21 04:04:13;;;;;;;12.48;11.05;;;;;;;15.82;73.70;96246.59;5001850;28;20514;-81
2023/05/21 04:06:41;;;;;;;12.27;10.98;;;;;;;15.76;71.20;96238.81;5001853;28;20082;-81
2023/05/21 04:09:09;;;;;;;15.85;14.15;;;;;;;15.78;76.59;96239.38;5002379;28;20081;-80
2023/05/21 04:11:38;;;;;;;15.73;14.18;;;;;;;15.86;82.10;96241.72;5002114;28;20050;-81
2023/05/21 04:14:06;;;;;;;12.77;11.23;;;;;;;15.88;76.25;96246.75;5001006;28;20082;-79
2023/05/21 04:16:34;;;;;;;12.35;11.05;;;;;;;15.81;72.86;96245.00;5001272;28;20054;-81
2023/05/21 04:19:02;;;;;;;12.70;10.93;;;;;;;15.75;72.93;96245.09;5000153;28;20101;-81
2023/05/21 04:21:31;;;;;;;14.30;12.80;;;;;;;15.78;79.51;96248.06;5003300;28;20514;-81
2023/05/21 04:23:59;;;;;;;14.35;12.85;;;;;;;15.83;79.52;96253.47;5002169;28;20051;-81
2023/05/21 04:26:28;;;;;;;14.65;11.30;;;;;;;15.78;74.30;96255.16;5014404;28;20042;-81
2023/05/21 04:28:58;;;;;;;13.10;11.75;;;;;;;15.69;72.54;96261.72;5019426;28;20038;-80
2023/05/21 04:31:25;;;;;;;12.75;11.45;;;;;;;15.64;72.16;96257.94;5019900;28;20065;-79
2023/05/21 04:33:53;;;;;;;12.57;11.35;;;;;;;15.63;72.01;96258.16;5004676;28;20495;-81
2023/05/21 04:36:21;;;;;;;14.05;11.20;;;;;;;15.62;71.34;96261.81;5002384;28;20089;-81
2023/05/21 04:38:48;;;;;;;12.38;10.95;;;;;;;15.61;71.49;96262.81;5003145;28;20061;-81
2023/05/21 04:41:17;;;;;;;13.50;10.73;;;;;;;15.68;72.78;96270.63;5002667;28;20529;-81
2023/05/21 04:43:45;;;;;;;12.90;10.88;;;;;;;15.65;71.48;96274.50;5002756;28;20474;-81
2023/05/21 04:46:14;;;;;;;15.27;11.25;;;;;;;15.65;70.99;96277.97;5002252;28;20058;-81
2023/05/21 04:48:43;;;;;;;15.98;14.27;;;;;;;15.74;79.16;96272.41;5001948;28;20101;-81
2023/05/21 04:51:11;;;;;;;12.77;11.30;;;;;;;15.75;74.59;96279.28;5001103;28;20058;-81
2023/05/21 04:53:39;;;;;;;13.35;12.00;;;;;;;15.77;75.93;96279.88;5000720;28;20050;-81
2023/05/21 04:56:08;;;;;;;13.57;10.90;;;;;;;15.75;72.88;96276.66;5001037;28;20046;-81
2023/05/21 04:58:36;;;;;;;14.05;12.55;;;;;;;15.78;76.46;96276.19;5001141;28;20073;-81
2023/05/21 05:01:03;;;;;;;12.30;10.95;;;;;;;15.77;72.94;96280.66;5001418;28;20053;-81
2023/05/21 05:03:32;;;;;;;12.02;10.63;;;;;;;15.74;71.51;96281.13;5001783;28;20050;-81
2023/05/21 05:06:03;;;;;;;14.13;12.63;;;;;;;15.74;75.06;96280.31;5001731;28;20047;-80
2023/05/21 05:08:30;;;;;;;14.65;13.18;;;;;;;15.83;79.20;96284.22;5000822;28;20506;-81
2023/05/21 05:10:58;;;;;;;12.85;10.38;;;;;;;15.80;75.54;96277.59;5001266;28;20050;-80
2023/05/21 05:13:26;;;;;;;15.60;14.00;;;;;;;15.91;82.14;96285.75;5000524;28;20121;-81
2023/05/21 05:15:53;;;;;;;11.82;10.63;;;;;;;15.89;76.20;96277.28;5000147;28;20494;-81
2023/05/21 05:18:21;;;;;;;17.33;10.73;;;;;;;15.83;73.49;96278.97;5001111;28;20097;-81
2023/05/21 05:20:50;;;;;;;11.63;10.35;;;;;;;15.81;71.86;96281.03;5001717;28;20403;-81
2023/05/21 05:23:17;;;;;;;12.18;9.95;;;;;;;15.80;71.53;96277.59;5000533;28;20050;-81
2023/05/21 05:25:45;;;;;;;12.73;10.85;;;;;;;15.80;71.23;96276.78;5000135;28;20092;-81
2023/05/21 05:28:13;;;;;;;13.50;11.23;;;;;;;15.80;71.47;96274.16;5001168;28;20051;-81
2023/05/21 05:30:40;;;;;;;13.95;12.43;;;;;;;15.89;76.14;96283.34;5000861;28;20077;-81
2023/05/21 05:33:08;;;;;;;11.95;10.73;;;;;;;15.94;73.24;96280.03;5000316;28;20050;-80
2023/05/21 05:35:36;;;;;;;12.48;10.25;;;;;;;15.94;72.79;96275.59;5000080;28;20050;-81
2023/05/21 05:38:07;;;;;;;14.07;12.48;;;;;;;16.05;80.36;96287.97;4999500;28;20042;-81
2023/05/21 05:40:35;;;;;;;10.75;8.57;;;;;;;16.09;74.24;96282.25;5000845;28;20112;-81
2023/05/21 05:43:02;;;;;;;10.80;9.18;;;;;;;16.07;72.11;96282.50;5000023;28;20057;-80
2023/05/21 05:45:30;;;;;;;10.77;9.15;;;;;;;16.12;71.21;96271.31;4999669;28;20082;-81
2023/05/21 05:47:58;;;;;;;10.57;9.48;;;;;;;16.16;70.48;96268.00;5000058;28;20073;-81
2023/05/21 05:50:25;;;;;;;11.68;9.98;;;;;;;16.28;76.25;96270.66;4999663;28;20057;-81
2023/05/21 05:52:53;;;;;;;11.75;10.55;;;;;;;16.40;76.64;96273.31;5000644;28;20403;-81
2023/05/21 05:55:23;;;;;;;9.38;8.38;;;;;;;16.38;71.28;96281.44;5000592;28;20584;-80
2023/05/21 05:57:51;;;;;;;12.93;11.23;;;;;;;16.45;77.94;96278.69;4999268;28;20495;-81
2023/05/21 06:00:19;;;;;;;11.48;9.52;;;;;;;16.45;73.83;96284.75;5000999;28;20054;-80
2023/05/21 06:02:47;;;;;;;10.80;9.70;;;;;;;16.46;74.94;96275.84;4996303;28;20050;-80
2023/05/21 06:05:15;;;;;;;11.65;7.95;;;;;;;16.50;70.54;96275.38;4996124;28;20121;-80
2023/05/21 06:07:43;;;;;;;9.80;7.60;;;;;;;16.50;69.24;96270.91;4980675;28;20133;-80
2023/05/21 06:10:11;;;;;;;9.70;7.03;;;;;;;16.55;67.04;96280.75;5007126;28;20042;-79
2023/05/21 06:12:40;;;;;;;10.48;9.45;;;;;;;16.62;74.70;96278.84;5003261;28;20038;-80
2023/05/21 06:15:09;;;;;;;9.02;8.13;;;;;;;16.68;73.85;96281.38;4998445;28;20074;-80
2023/05/21 06:17:36;;;;;;;10.75;7.75;;;;;;;16.70;70.71;96278.50;5002070;28;20074;-81
2023/05/21 06:20:06;;;;;;;13.65;8.65;;;;;;;16.74;70.93;96279.63;5004428;28;20042;-81
2023/05/21 06:22:33;;;;;;;8.73;7.82;;;;;;;16.77;70.26;96281.84;5004984;28;20054;-81
2023/05/21 06:25:01;;;;;;;8.88;8.02;;;;;;;16.83;71.43;96283.56;5005200;28;20057;-81
2023/05/21 06:27:29;;;;;;;10.02;8.27;;;;;;;16.84;70.34;96279.91;5002067;28;20043;-81
2023/05/21 06:29:58;;;;;;;8.25;7.00;;;;;;;16.89;65.92;96280.00;4998678;28;20054;-80
2023/05/21 06:32:25;;;;;;;8.80;7.68;;;;;;;16.95;68.58;96280.94;4994525;28;20137;-80
2023/05/21 06:34:53;;;;;;;8.40;7.60;;;;;;;16.98;67.64;96274.41;4994083;28;20096;-80
2023/05/21 06:37:21;;;;;;;8.68;7.78;;;;;;;17.04;69.25;96276.13;5013490;28;20085;-79
2023/05/21 06:39:51;;;;;;;9.35;6.20;;;;;;;17.07;64.74;96270.38;5013581;28;20046;-79
2023/05/21 06:42:18;;;;;;;7.38;6.55;;;;;;;17.08;62.96;96279.91;5013857;28;20472;-80
2023/05/21 06:44:46;;;;;;;7.40;6.45;;;;;;;17.09;61.99;96276.22;5013059;28;20488;-80
2023/05/21 06:47:15;;;;;;;7.82;6.72;;;;;;;17.12;61.14;96282.88;5013672;28;20053;-80
2023/05/21 06:49:42;;;;;;;7.75;6.97;;;;;;;17.15;61.44;96272.66;5013881;28;20077;-79
2023/05/21 06:52:10;;;;;;;11.38;6.85;;;;;;;17.18;60.77;96282.75;5012941;28;20096;-80
2023/05/21 06:54:38;;;;;;;7.45;6.53;;;;;;;17.20;60.29;96280.69;5013559;28;20046;-79
2023/05/21 06:57:05;;;;;;;7.47;6.30;;;;;;;17.21;59.83;96290.19;5014022;28;20089;-79
2023/05/21 06:59:33;;;;;;;7.82;6.10;;;;;;;17.20;60.20;96288.59;5013508;28;20077;-79
2023/05/21 07:02:01;;;;;;;7.72;6.90;;;;;;;17.24;62.00;96294.22;5013884;28;20046;-81
2023/05/21 07:04:33;;;;;;;7.65;6.35;;;;;;;17.25;59.97;96287.88;5013623;28;20129;-80
2023/05/21 07:07:03;;;;;;;7.85;6.25;;;;;;;17.27;59.47;96289.28;5013837;28;20064;-79
2023/05/21 07:09:31;;;;;;;6.70;6.00;;;;;;;17.29;59.11;96297.75;5013432;28;20405;-80
2023/05/21 07:12:00;;;;;;;6.55;5.75;;;;;;;17.28;58.52;96290.88;5002617;28;20046;-77
2023/05/21 07:14:27;;;;;;;8.35;5.78;;;;;;;17.34;58.49;96293.59;4997716;28;20054;-79
2023/05/21 07:16:55;;;;;;;7.22;6.00;;;;;;;17.37;58.23;96293.97;4996785;28;20110;-80
2023/05/21 07:19:22;;;;;;;6.60;5.90;;;;;;;17.42;58.17;96296.69;4995743;28;20050;-79
2023/05/21 07:21:51;;;;;;;7.45;6.45;;;;;;;17.50;60.59;96298.19;4994067;28;20062;-79
2023/05/21 07:24:19;;;;;;;7.88;6.53;;;;;;;17.56;58.44;96297.25;5003410;28;20081;-80
2023/05/21 07:26:47;;;;;;;7.18;6.47;;;;;;;17.62;59.64;96298.97;5012139;28;20054;-80
2023/05/21 07:29:15;;;;;;;7.88;7.05;;;;;;;17.73;63.27;96301.78;5019934;28;20074;-78
2023/05/21 07:31:42;;;;;;;8.00;7.20;;;;;;;17.77;63.72;96300.28;5000149;28;20101;-80
2023/05/21 07:34:10;;;;;;;7.75;6.95;;;;;;;17.82;62.11;96292.47;5000959;28;20072;-79
2023/05/21 07:36:37;;;;;;;6.72;5.75;;;;;;;17.89;61.53;96299.25;5000300;28;20054;-78
2023/05/21 07:39:07;;;;;;;6.93;6.20;;;;;;;17.94;59.14;96297.72;4993595;28;20042;-79
2023/05/21 07:41:34;;;;;;;7.43;5.35;;;;;;;18.01;57.99;96291.25;4993478;28;20066;-78
2023/05/21 07:44:02;;;;;;;6.40;5.80;;;;;;;18.10;57.38;96292.50;5010486;28;20139;-77
2023/05/21 07:46:30;;;;;;;6.28;5.38;;;;;;;18.17;56.67;96300.28;5012747;28;20481;-79
2023/05/21 07:48:57;;;;;;;6.43;5.80;;;;;;;18.22;56.28;96292.44;5013055;28;20476;-79
2023/05/21 07:51:25;;;;;;;6.88;6.18;;;;;;;18.29;55.71;96295.72;5027093;28;20046;-79
2023/05/21 07:53:53;;;;;;;6.95;5.90;;;;;;;18.37;55.89;96299.03;5029321;28;20049;-79
2023/05/21 07:56:23;;;;;;;6.30;5.63;;;;;;;18.41;54.80;96294.84;5029255;28;20046;-79
2023/05/21 07:58:51;;;;;;;6.05;5.40;;;;;;;18.47;55.10;96301.81;5022285;28;20101;-79
2023/05/21 08:01:18;;;;;;;7.15;5.63;;;;;;;18.52;55.18;96296.66;5004618;28;20046;-78
2023/05/21 08:03:46;;;;;;;8.27;5.85;;;;;;;18.59;55.27;96293.84;4994203;28;20050;-78
2023/05/21 08:06:14;;;;;;;6.03;5.43;;;;;;;18.64;54.15;96294.72;4993439;28;20046;-79
2023/05/21 08:08:41;;;;;;;6.50;5.78;;;;;;;18.71;53.63;96305.13;4996682;28;20051;-79
2023/05/21 08:11:09;;;;;;;6.22;5.43;;;;;;;18.77;54.37;96300.72;5013780;28;20119;-79
2023/05/21 08:13:38;;;;;;;7.47;6.68;;;;;;;18.84;61.48;96307.47;5015980;28;20088;-79
2023/05/21 08:16:06;;;;;;;7.45;6.07;;;;;;;18.88;58.59;96300.66;5012801;28;20054;-79
2023/05/21 08:18:34;;;;;;;8.95;6.55;;;;;;;18.93;59.46;96300.75;5011468;28;20046;-78
2023/05/21 08:21:01;;;;;;;11.35;6.78;;;;;;;18.94;58.82;96294.41;5036553;28;20095;-79
2023/05/21 08:23:29;;;;;;;6.53;5.65;;;;;;;18.99;56.72;96298.16;5016494;28;20061;-79
2023/05/21 08:25:57;;;;;;;6.15;5.55;;;;;;;19.03;57.05;96300.09;5010312;28;20053;-78
2023/05/21 08:28:26;;;;;;;6.57;5.18;;;;;;;19.07;55.26;96297.75;5036308;28;20140;-78
2023/05/21 08:30:55;;;;;;;8.77;5.90;;;;;;;19.12;56.39;96297.81;5020696;28;20038;-80
2023/05/21 08:33:22;;;;;;;7.45;6.43;;;;;;;19.18;62.40;96304.00;5007367;28;20054;-80
2023/05/21 08:35:50;;;;;;;13.45;6.00;;;;;;;19.22;56.87;96292.69;5017021;28;20149;-81
2023/05/21 08:38:18;;;;;;;7.57;6.30;;;;;;;19.26;59.05;96290.34;5034084;28;20096;-79
2023/05/21 08:40:46;;;;;;;8.98;6.00;;;;;;;19.30;60.92;96289.59;5030875;28;20139;-79
2023/05/21 08:43:15;;;;;;;7.30;6.57;;;;;;;19.37;63.03;96292.06;5022735;28;20488;-80
2023/05/21 08:45:45;;;;;;;7.60;6.82;;;;;;;19.41;61.58;96293.19;5035614;28;20517;-78
2023/05/21 08:48:16;;;;;;;6.80;5.45;;;;;;;19.43;56.17;96291.09;5036149;28;20046;-79
2023/05/21 08:50:45;;;;;;;7.63;6.40;;;;;;;19.50;59.24;96290.91;5037153;28;20050;-79
2023/05/21 08:53:13;;;;;;;7.13;5.47;;;;;;;19.56;57.59;96298.66;5038898;28;20085;-79
2023/05/21 08:55:57;;;;;;;6.22;5.57;;;;;;;19.64;61.07;96294.78;5053993;28;20049;-79
2023/05/21 08:58:26;;;;;;;7.22;6.53;;;;;;;19.69;61.58;96286.13;5056267;28;20053;-80
2023/05/21 09:00:55;;;;;;;7.72;6.70;;;;;;;19.73;62.48;96292.56;5054310;28;20101;-80
2023/05/21 09:03:26;;;;;;;10.55;5.93;;;;;;;19.79;60.40;96298.69;5053756;28;20099;-81
2023/05/21 09:05:54;;;;;;;8.45;7.13;;;;;;;19.82;62.40;96303.50;5050639;28;20050;-80
2023/05/21 09:08:29;;;;;;;5.95;5.35;;;;;;;19.87;55.53;96300.91;5053704;28;20054;-81
2023/05/21 09:10:57;;;;;;;6.20;5.38;;;;;;;19.94;56.59;96306.78;4998068;28;20058;-78
2023/05/21 09:13:26;;;;;;;9.00;5.90;;;;;;;20.03;61.07;96301.84;4996267;28;20465;-79
2023/05/21 09:15:53;;;;;;;10.38;6.35;;;;;;;20.12;60.50;96303.03;4996064;28;20108;-81
2023/05/21 09:18:21;;;;;;;6.38;5.68;;;;;;;20.21;57.43;96303.38;5015768;28;20045;-77
2023/05/21 09:20:52;;;;;;;7.90;6.30;;;;;;;20.31;61.18;96304.28;5034654;28;20046;-80
2023/05/21 09:23:20;;;;;;;6.23;5.63;;;;;;;20.40;61.31;96301.97;5037720;28;20049;-77
2023/05/21 09:25:50;;;;;;;6.28;5.68;;;;;;;20.50;56.13;96304.69;5040677;28;20080;-79
2023/05/21 09:28:20;;;;;;;6.72;5.35;;;;;;;20.58;56.63;96308.78;5035725;28;20080;-76
2023/05/21 09:30:49;;;;;;;9.18;6.70;;;;;;;20.67;61.12;96309.13;5035793;28;20047;-79
2023/05/21 09:33:25;;;;;;;6.45;5.85;;;;;;;20.77;58.36;96306.53;5034856;28;20084;-80
2023/05/21 09:35:54;;;;;;;6.63;5.93;;;;;;;20.85;56.10;96306.06;5024185;28;20046;-79
2023/05/21 09:38:23;;;;;;;5.93;5.13;;;;;;;20.92;52.49;96317.25;5015464;28;20085;-78
2023/05/21 09:40:50;;;;;;;7.97;5.53;;;;;;;21.01;52.73;96306.16;5014807;28;20092;-79
2023/05/21 09:43:18;;;;;;;6.03;4.85;;;;;;;21.13;51.65;96301.47;5020514;28;20054;-79
2023/05/21 09:45:53;;;;;;;6.30;5.70;;;;;;;21.22;50.01;96313.19;5014211;28;20173;-79
2023/05/21 09:48:34;;;;;;;6.50;5.85;;;;;;;21.29;52.57;96313.75;5015179;28;20091;-79
2023/05/21 09:51:14;;;;;;;6.53;5.90;;;;;;;21.36;50.59;96310.88;5014697;28;20042;-79
2023/05/21 09:53:48;;;;;;;6.10;5.50;;;;;;;21.43;56.45;96308.03;4999318;28;20050;-79
2023/05/21 09:56:18;;;;;;;7.20;6.15;;;;;;;21.45;55.61;96306.72;4998934;28;20057;-79
2023/05/21 09:58:46;;;;;;;8.05;6.00;;;;;;;21.45;50.28;96303.25;5014537;28;20488;-79
2023/05/21 10:01:14;;;;;;;6.95;6.25;;;;;;;21.51;52.93;96312.84;5034101;28;20072;-78
2023/05/21 10:03:44;;;;;;;5.75;5.25;;;;;;;21.54;48.53;96309.69;5020110;28;20077;-80
2023/05/21 10:06:14;;;;;;;6.20;5.65;;;;;;;21.57;52.46;96314.47;4994304;28;20050;-80
2023/05/21 10:08:47;;;;;;;6.22;5.63;;;;;;;21.62;52.24;96309.19;4997989;28;20065;-80
2023/05/21 10:11:16;;;;;;;6.80;6.10;;;;;;;21.65;50.79;96313.19;5009721;28;20145;-79
2023/05/21 10:13:50;;;;;;;7.85;6.20;;;;;;;21.65;47.98;96308.69;4995202;28;20516;-79
2023/05/21 10:16:18;;;;;;;6.75;5.40;;;;;;;21.67;49.60;96311.06;5004121;28;20410;-79
2023/05/21 10:18:48;;;;;;;11.02;6.47;;;;;;;21.69;53.15;96312.41;5012916;28;20103;-79
2023/05/21 10:21:18;;;;;;;8.75;5.75;;;;;;;21.72;50.13;96311.09;4994761;28;20076;-79
2023/05/21 10:23:46;;;;;;;8.40;5.53;;;;;;;21.74;49.30;96309.78;5001866;28;20084;-79
2023/05/21 10:26:14;;;;;;;6.93;5.20;;;;;;;21.80;48.32;96308.72;5021696;28;20077;-79
2023/05/21 10:28:42;;;;;;;7.10;6.18;;;;;;;21.87;49.34;96307.69;5027020;28;20453;-79
2023/05/21 10:31:11;;;;;;;6.88;6.15;;;;;;;21.91;54.88;96304.25;5013655;28;20049;-79
2023/05/21 10:33:42;;;;;;;6.90;5.97;;;;;;;21.95;49.73;96307.16;5013217;28;20052;-79
2023/05/21 10:36:09;;;;;;;7.20;6.20;;;;;;;22.00;52.19;96305.34;5000761;28;20462;-79
2023/05/21 10:38:40;;;;;;;6.95;6.15;;;;;;;22.07;47.63;96315.72;4994462;28;20082;-79
2023/05/21 10:41:09;;;;;;;7.63;6.07;;;;;;;22.10;46.86;96312.53;5002404;28;20466;-79
2023/05/21 10:43:56;;;;;;;7.32;5.40;;;;;;;22.16;46.01;96310.69;5015445;28;20391;-79
2023/05/21 10:47:05;;;;;;;6.00;5.40;;;;;;;22.23;45.03;96303.28;5005293;28;20137;-79
2023/05/21 10:49:48;;;;;;;5.60;5.10;;;;;;;22.30;45.99;96305.69;5013725;28;20627;-79
2023/05/21 10:52:31;;;;;;;7.45;5.85;;;;;;;22.40;45.75;96300.38;4996519;28;20050;-79
2023/05/21 10:55:22;;;;;;;6.07;5.45;;;;;;;22.56;47.16;96294.00;5008924;28;20077;-78
2023/05/21 10:58:13;;;;;;;8.07;6.18;;;;;;;22.72;47.14;96286.84;5168554;22;20161;-86
2023/05/21 11:00:42;;;;;;;6.60;5.35;;;;;;;22.83;45.90;96284.97;5026703;28;20033;-85
2023/05/21 11:03:14;;;;;;;6.28;5.13;;;;;;;22.90;45.30;96282.84;5030271;28;20050;-84
2023/05/21 11:05:52;;;;;;;6.32;5.43;;;;;;;22.98;44.16;96284.97;5028613;28;20054;-86
2023/05/21 11:08:26;;;;;;;6.60;5.88;;;;;;;23.04;44.12;96280.44;5018973;28;20073;-84
2023/05/21 11:10:59;;;;;;;12.15;6.55;;;;;;;23.10;47.79;96284.69;5006129;28;20054;-77
2023/05/21 11:13:30;;;;;;;8.55;5.78;;;;;;;23.14;44.45;96284.97;5002893;28;20057;-77
2023/05/21 11:16:07;;;;;;;7.20;6.18;;;;;;;23.19;43.41;96279.63;5016762;28;20480;-76
2023/05/21 11:18:56;;;;;;;7.25;5.85;;;;;;;23.26;45.51;96282.78;5006414;28;20437;-78
2023/05/21 11:21:27;;;;;;;7.53;5.70;;;;;;;23.31;43.76;96287.28;5008206;28;20478;-79
2023/05/21 11:23:56;;;;;;;9.27;6.47;;;;;;;23.34;43.66;96281.44;5001631;28;20056;-79
2023/05/21 11:26:27;;;;;;;8.15;7.10;;;;;;;23.38;42.16;96282.50;5023363;28;20057;-83
2023/05/21 11:29:07;;;;;;;9.00;7.30;;;;;;;23.44;43.66;96278.75;5038815;28;20046;-83
2023/05/21 11:31:38;;;;;;;9.07;7.95;;;;;;;23.51;43.62;96270.47;5013626;28;20058;-80
2023/05/21 11:34:11;;;;;;;7.25;5.53;;;;;;;23.53;40.85;96274.47;5005806;28;20055;-83